Time;durP1;ratioP1;P1;durP2;ratioP2;P2;SDS_P1;SDS_P2;PMS_P1;PMS_P2;Temp;Humidity;BMP_temperature;BMP_pressure;BME280_temperature;BME280_humidity;BME280_pressure;Samples;Min_cycle;Max_cycle;Signal;HPM_P1;HPM_P2
2021/01/24 00:00:16;;;;;;;20.37;15.97;;;0.40;99.90;;;1.32;100.00;98175.88;5033178;28;20264;-62
2021/01/24 00:02:43;;;;;;;19.00;14.87;;;0.40;99.90;;;1.28;100.00;98179.97;5033086;28;20202;-62
2021/01/24 00:05:11;;;;;;;19.10;14.67;;;0.40;99.90;;;1.41;100.00;98185.22;5033044;28;20283;-61
2021/01/24 00:07:39;;;;;;;18.20;14.77;;;0.40;99.90;;;1.26;100.00;98171.41;5032480;28;20670;-63
2021/01/24 00:10:08;;;;;;;19.53;14.17;;;0.40;99.90;;;1.27;100.00;98180.19;5028881;28;20626;-62
2021/01/24 00:12:35;;;;;;;19.70;14.93;;;0.40;99.90;;;1.34;100.00;98171.19;5022532;28;20326;-62
2021/01/24 00:15:04;;;;;;;18.30;14.07;;;0.50;99.90;;;1.55;100.00;98170.91;5025804;28;20337;-62
2021/01/24 00:17:31;;;;;;;19.33;15.13;;;0.60;99.90;;;1.49;100.00;98166.41;5021525;28;20230;-63
2021/01/24 00:20:00;;;;;;;19.20;14.30;;;0.60;99.90;;;1.47;100.00;98167.66;5021919;28;20568;-63
2021/01/24 00:22:28;;;;;;;18.57;14.43;;;0.60;99.90;;;1.69;100.00;98164.47;5022806;28;20680;-62
2021/01/24 00:24:57;;;;;;;18.27;13.77;;;0.60;99.90;;;1.61;100.00;98159.41;5021962;28;20222;-63
2021/01/24 00:27:24;;;;;;;19.77;15.40;;;0.70;99.90;;;1.68;100.00;98159.38;5021013;28;20261;-61
2021/01/24 00:29:52;;;;;;;18.30;14.80;;;0.70;99.90;;;1.37;100.00;98162.00;5022009;28;20231;-61
2021/01/24 00:32:19;;;;;;;19.03;15.00;;;0.70;99.90;;;1.33;100.00;98169.56;5022054;28;20194;-62
2021/01/24 00:34:47;;;;;;;17.60;14.03;;;0.60;99.90;;;1.49;100.00;98170.94;5020611;28;20599;-61
2021/01/24 00:37:14;;;;;;;16.90;13.70;;;0.60;99.90;;;1.57;100.00;98162.72;5014394;28;20265;-63
2021/01/24 00:39:42;;;;;;;17.67;13.40;;;0.60;99.90;;;1.48;100.00;98166.63;5019994;28;20227;-63
2021/01/24 00:42:10;;;;;;;18.83;13.70;;;0.60;99.90;;;1.36;100.00;98161.19;5022732;28;20206;-62
2021/01/24 00:44:37;;;;;;;17.13;13.70;;;0.60;99.90;;;1.41;100.00;98160.53;5020387;28;20254;-61
2021/01/24 00:47:05;;;;;;;17.43;14.40;;;0.50;99.90;;;1.11;100.00;98162.91;5026297;28;20198;-61
2021/01/24 00:49:33;;;;;;;17.73;14.13;;;0.50;99.90;;;1.29;100.00;98165.69;5048044;28;20216;-62
2021/01/24 00:52:00;;;;;;;18.23;13.90;;;0.40;99.90;;;1.29;100.00;98160.38;5051638;28;20238;-63
2021/01/24 00:54:28;;;;;;;18.17;13.67;;;0.40;99.90;;;1.39;100.00;98158.09;5037290;28;20199;-60
2021/01/24 00:56:55;;;;;;;15.43;12.67;;;0.40;99.90;;;1.52;100.00;98154.59;5021305;28;20198;-62
2021/01/24 00:59:23;;;;;;;16.47;12.93;;;0.50;99.90;;;1.15;100.00;98143.72;5021861;28;20292;-62
2021/01/24 01:01:50;;;;;;;15.53;13.30;;;0.40;99.90;;;1.22;100.00;98149.81;5020745;28;20194;-62
2021/01/24 01:04:18;;;;;;;17.37;13.40;;;0.40;99.90;;;1.11;100.00;98154.94;5020271;28;20224;-62
2021/01/24 01:06:45;;;;;;;17.30;13.90;;;0.40;99.90;;;1.15;100.00;98150.88;5022245;28;20631;-62
2021/01/24 01:09:12;;;;;;;16.73;13.30;;;0.30;99.90;;;1.18;100.00;98151.25;5021027;28;20280;-63
2021/01/24 01:11:40;;;;;;;17.70;14.50;;;0.40;99.90;;;1.20;100.00;98146.53;5020410;28;20681;-61
2021/01/24 01:14:07;;;;;;;17.77;14.27;;;0.40;99.90;;;1.25;100.00;98152.03;5020003;28;20244;-61
2021/01/24 01:16:35;;;;;;;17.23;13.73;;;0.30;99.90;;;1.17;100.00;98152.28;5021008;28;20296;-61
2021/01/24 01:19:03;;;;;;;18.70;14.23;;;0.30;99.90;;;1.23;100.00;98158.59;5016939;28;20198;-61
2021/01/24 01:21:30;;;;;;;19.70;14.73;;;0.30;99.90;;;1.56;100.00;98161.91;5020841;28;20559;-62
2021/01/24 01:23:57;;;;;;;19.43;15.77;;;0.40;99.90;;;1.56;100.00;98166.38;5022269;28;20300;-61
2021/01/24 01:26:25;;;;;;;19.23;15.17;;;0.40;99.90;;;1.49;100.00;98170.94;5019337;28;20237;-62
2021/01/24 01:28:52;;;;;;;19.93;15.30;;;0.50;99.90;;;1.41;100.00;98165.84;5021176;28;20203;-62
2021/01/24 01:31:19;;;;;;;19.30;14.87;;;0.40;99.90;;;1.35;100.00;98162.22;5025262;28;20244;-61
2021/01/24 01:33:47;;;;;;;19.60;15.37;;;0.40;99.90;;;1.13;100.00;98160.88;5031273;28;20236;-62
2021/01/24 01:36:14;;;;;;;18.67;15.03;;;0.40;99.90;;;1.06;100.00;98149.47;5031373;28;20183;-61
2021/01/24 01:38:42;;;;;;;19.60;15.23;;;0.30;99.90;;;1.07;100.00;98151.09;5030907;28;20789;-61
2021/01/24 01:41:09;;;;;;;19.40;15.23;;;0.30;99.90;;;1.12;100.00;98146.78;5031382;28;20240;-62
2021/01/24 01:43:36;;;;;;;20.27;15.93;;;0.30;99.90;;;1.05;100.00;98153.94;5025416;28;20682;-61
2021/01/24 01:46:04;;;;;;;18.57;15.40;;;0.20;99.90;;;1.09;100.00;98149.03;5010821;28;20318;-63
2021/01/24 01:48:33;;;;;;;21.57;16.27;;;0.20;99.90;;;1.21;100.00;98142.88;5026712;28;20198;-62
2021/01/24 01:51:01;;;;;;;20.67;15.53;;;0.30;99.90;;;1.13;100.00;98137.81;5051068;28;20360;-63
2021/01/24 01:53:29;;;;;;;20.03;15.43;;;0.30;99.90;;;1.10;100.00;98138.22;5050944;28;20744;-63
2021/01/24 01:55:56;;;;;;;19.23;15.70;;;0.30;99.90;;;1.12;100.00;98130.06;5051268;28;20194;-62
2021/01/24 01:58:24;;;;;;;20.77;16.03;;;0.20;99.90;;;1.08;100.00;98132.31;5050858;28;20204;-61
2021/01/24 02:00:51;;;;;;;20.03;15.17;;;0.20;99.90;;;0.93;100.00;98128.31;5050240;28;20198;-61
2021/01/24 02:03:35;;;;;;;19.43;15.10;;;0.20;99.90;;;0.90;100.00;98132.19;5051097;28;20254;-62
2021/01/24 02:06:15;;;;;;;19.20;14.87;;;0.10;99.90;;;1.15;100.00;98129.66;5050630;28;20745;-61
2021/01/24 02:08:52;;;;;;;21.50;15.60;;;0.20;99.90;;;1.14;100.00;98126.19;5025006;28;20290;-61
2021/01/24 02:11:30;;;;;;;19.17;15.10;;;0.20;99.90;;;1.05;100.00;98119.50;5030905;28;20704;-62
2021/01/24 02:14:08;;;;;;;21.03;15.97;;;0.20;99.90;;;0.84;100.00;98114.47;5031919;28;20276;-60
2021/01/24 02:16:38;;;;;;;18.77;14.87;;;0.10;99.90;;;0.72;100.00;98112.66;5034790;28;20561;-62
2021/01/24 02:19:15;;;;;;;20.33;15.67;;;0.10;99.90;;;0.86;100.00;98120.34;5034824;28;20186;-62
2021/01/24 02:21:46;;;;;;;21.20;15.27;;;0.00;99.90;;;0.78;100.00;98114.47;5034340;28;20218;-61
2021/01/24 02:24:16;;;;;;;19.80;14.40;;;0.00;99.90;;;0.70;100.00;98117.34;5034463;28;20233;-62
2021/01/24 02:27:00;;;;;;;19.70;16.17;;;0.00;99.90;;;0.73;100.00;98117.75;5034604;28;20238;-61
2021/01/24 02:29:44;;;;;;;20.43;15.90;;;-0.10;99.90;;;0.66;100.00;98113.50;5034280;28;20226;-64
2021/01/24 02:32:17;;;;;;;22.27;15.80;;;-0.10;99.90;;;0.86;100.00;98108.97;5034215;28;20231;-62
2021/01/24 02:34:46;;;;;;;21.97;16.13;;;0.00;99.90;;;0.99;100.00;98109.72;5034095;28;20233;-62
2021/01/24 02:37:16;;;;;;;20.67;15.97;;;0.00;99.90;;;1.05;100.00;98105.41;5034100;28;20287;-62
2021/01/24 02:39:44;;;;;;;20.77;15.57;;;0.00;99.90;;;1.13;100.00;98106.00;5033828;28;20233;-62
2021/01/24 02:42:14;;;;;;;21.47;16.23;;;0.10;99.90;;;1.30;100.00;98105.53;5034193;28;20243;-62
2021/01/24 02:44:43;;;;;;;22.57;16.47;;;0.20;99.90;;;1.35;100.00;98097.75;5033686;28;20565;-62
2021/01/24 02:47:12;;;;;;;22.77;16.83;;;0.20;99.90;;;1.13;100.00;98103.34;5034163;28;20235;-61
2021/01/24 02:49:44;;;;;;;23.20;16.10;;;0.30;99.90;;;1.25;100.00;98092.91;5050910;28;20691;-61
2021/01/24 02:52:13;;;;;;;22.67;15.97;;;0.20;99.90;;;1.52;100.00;98091.75;5053697;28;20601;-62
2021/01/24 02:54:41;;;;;;;19.77;15.63;;;0.40;99.90;;;1.55;100.00;98086.00;5053900;28;20197;-61
2021/01/24 02:57:08;;;;;;;22.10;16.90;;;0.40;99.90;;;1.59;100.00;98087.19;5053672;28;20288;-62
2021/01/24 02:59:37;;;;;;;22.27;16.70;;;0.50;99.90;;;1.61;100.00;98085.13;5053525;28;20198;-61
2021/01/24 03:02:05;;;;;;;21.90;16.40;;;0.50;99.90;;;1.57;100.00;98091.09;5053539;28;20200;-62
2021/01/24 03:04:33;;;;;;;20.03;15.50;;;0.60;99.90;;;1.60;100.00;98093.31;5053557;28;20202;-62
2021/01/24 03:07:01;;;;;;;20.17;15.70;;;0.50;99.90;;;1.48;100.00;98085.22;5053444;28;20288;-62
2021/01/24 03:09:29;;;;;;;19.57;15.73;;;0.50;99.90;;;1.57;100.00;98088.44;5053652;28;20229;-61
2021/01/24 03:12:02;;;;;;;22.53;15.63;;;0.50;99.90;;;1.47;100.00;98080.97;5053597;28;20205;-61
2021/01/24 03:14:33;;;;;;;21.37;15.97;;;0.50;99.90;;;1.12;100.00;98083.16;5053194;28;20271;-62
2021/01/24 03:17:03;;;;;;;19.83;15.63;;;0.40;99.90;;;1.23;100.00;98087.00;5053545;28;20215;-62
2021/01/24 03:19:34;;;;;;;20.17;15.90;;;0.40;99.90;;;0.99;100.00;98085.88;5053477;28;20198;-62
2021/01/24 03:22:03;;;;;;;20.17;15.67;;;0.30;99.90;;;1.12;100.00;98085.00;5053373;28;20192;-61
2021/01/24 03:24:32;;;;;;;22.97;16.47;;;0.30;99.90;;;1.13;100.00;98084.78;5053262;28;20577;-61
2021/01/24 03:27:00;;;;;;;23.33;17.27;;;0.30;99.90;;;1.00;100.00;98074.25;5052795;28;20230;-61
2021/01/24 03:29:28;;;;;;;21.30;16.07;;;0.30;99.90;;;1.01;100.00;98072.41;5053119;28;20201;-62
2021/01/24 03:31:55;;;;;;;21.77;16.47;;;0.20;99.90;;;0.83;100.00;98072.28;5053326;28;20235;-62
2021/01/24 03:34:25;;;;;;;20.73;15.27;;;0.10;99.90;;;0.93;100.00;98065.50;5052910;28;20751;-60
2021/01/24 03:36:55;;;;;;;22.30;15.87;;;0.10;99.90;;;0.99;100.00;98066.50;5052617;28;20285;-60
2021/01/24 03:39:22;;;;;;;21.73;15.77;;;0.10;99.90;;;1.00;100.00;98050.41;5052956;28;20289;-62
2021/01/24 03:41:49;;;;;;;20.87;14.93;;;0.10;99.90;;;1.09;100.00;98054.44;5053080;28;20236;-61
2021/01/24 03:44:17;;;;;;;21.70;15.03;;;0.10;99.90;;;0.87;100.00;98063.72;5052671;28;20201;-61
2021/01/24 03:46:44;;;;;;;25.03;15.87;;;0.10;99.90;;;0.90;100.00;98054.50;5052692;28;20308;-62
2021/01/24 03:49:11;;;;;;;22.47;16.03;;;0.10;99.90;;;0.90;100.00;98051.88;5039568;28;20257;-61
2021/01/24 03:51:44;;;;;;;18.50;13.90;;;0.10;99.90;;;0.90;100.00;98054.50;5033010;28;20190;-61
2021/01/24 03:54:12;;;;;;;22.07;14.63;;;0.10;99.90;;;1.05;100.00;98049.75;5032681;28;20296;-61
2021/01/24 03:56:39;;;;;;;19.63;14.50;;;0.10;99.90;;;0.89;100.00;98052.91;5032627;28;20199;-61
2021/01/24 03:59:07;;;;;;;20.50;14.30;;;0.10;99.90;;;0.99;100.00;98053.25;5032631;28;20540;-62
2021/01/24 04:01:34;;;;;;;21.43;14.37;;;0.10;99.90;;;0.94;100.00;98050.44;5032439;28;20239;-61
2021/01/24 04:04:02;;;;;;;20.13;13.83;;;0.10;99.90;;;1.09;100.00;98038.53;5032702;28;20202;-61
2021/01/24 04:06:30;;;;;;;22.17;14.47;;;0.10;99.90;;;1.21;100.00;98036.03;5032300;28;20287;-61
2021/01/24 04:08:57;;;;;;;21.13;14.27;;;0.20;99.90;;;1.41;100.00;98042.00;5032350;28;20236;-61
2021/01/24 04:11:25;;;;;;;19.93;13.43;;;0.30;99.90;;;1.09;100.00;98027.94;5032587;28;20260;-61
2021/01/24 04:13:52;;;;;;;19.00;13.27;;;0.30;99.90;;;1.02;100.00;98037.75;5032286;28;20277;-61
2021/01/24 04:16:19;;;;;;;19.60;13.63;;;0.30;99.90;;;1.13;100.00;98038.94;5032608;28;20199;-62
2021/01/24 04:18:47;;;;;;;18.87;13.00;;;0.20;99.90;;;0.96;100.00;98037.78;5032470;28;20719;-61
2021/01/24 04:21:14;;;;;;;19.70;12.83;;;0.20;99.90;;;0.99;100.00;98037.34;5032199;28;20194;-61
2021/01/24 04:23:42;;;;;;;19.33;13.20;;;0.20;99.90;;;1.14;100.00;98043.19;5031862;28;20733;-61
2021/01/24 04:26:10;;;;;;;18.27;12.83;;;0.20;99.90;;;1.13;100.00;98033.63;5031996;28;20224;-61
2021/01/24 04:28:38;;;;;;;17.83;12.67;;;0.20;99.90;;;1.13;100.00;98033.63;5032082;28;20233;-60
2021/01/24 04:31:05;;;;;;;18.87;13.30;;;0.20;99.90;;;1.27;100.00;98026.41;5032095;28;20233;-61
2021/01/24 04:33:33;;;;;;;15.93;12.27;;;0.30;99.90;;;1.23;100.00;98026.03;5031694;28;20206;-62
2021/01/24 04:36:00;;;;;;;18.27;13.03;;;0.30;99.90;;;1.19;100.00;98022.16;5032049;28;20178;-61
2021/01/24 04:38:28;;;;;;;17.50;12.03;;;0.30;99.90;;;1.37;100.00;98024.09;5032027;28;20235;-62
2021/01/24 04:40:55;;;;;;;17.83;11.60;;;0.30;99.90;;;1.32;100.00;98022.06;5031996;28;20284;-62
2021/01/24 04:43:23;;;;;;;16.43;11.53;;;0.30;99.90;;;1.30;100.00;98023.31;5031813;28;20226;-62
2021/01/24 04:45:55;;;;;;;16.93;11.77;;;0.30;99.90;;;1.45;100.00;98027.31;5031819;28;20660;-62
2021/01/24 04:48:22;;;;;;;18.13;12.07;;;0.40;99.90;;;1.13;100.00;98029.13;5038417;28;20228;-63
2021/01/24 04:50:50;;;;;;;16.83;12.23;;;0.30;99.90;;;1.23;100.00;98031.31;5052163;28;20205;-62
2021/01/24 04:53:18;;;;;;;18.53;12.37;;;0.30;99.90;;;1.32;100.00;98022.06;5051776;28;20198;-62
2021/01/24 04:55:47;;;;;;;16.47;11.87;;;0.30;99.90;;;1.30;100.00;98024.16;5051380;28;20259;-62
2021/01/24 04:58:15;;;;;;;17.70;12.13;;;0.30;99.90;;;1.48;100.00;98018.09;5051234;28;20287;-62
2021/01/24 05:00:43;;;;;;;16.80;11.50;;;0.40;99.90;;;1.42;100.00;98016.31;5051228;28;20579;-62
2021/01/24 05:03:11;;;;;;;17.20;11.40;;;0.40;99.90;;;1.08;100.00;98020.19;5051460;28;20256;-62
2021/01/24 05:05:38;;;;;;;18.33;11.57;;;0.30;99.90;;;1.31;100.00;98003.72;5051021;28;20745;-62
2021/01/24 05:08:11;;;;;;;19.60;12.30;;;0.40;99.90;;;1.29;100.00;98011.91;5051392;28;20284;-61
2021/01/24 05:10:39;;;;;;;18.00;11.90;;;0.40;99.90;;;1.29;100.00;98014.56;5051048;28;20216;-60
2021/01/24 05:13:06;;;;;;;18.53;12.63;;;0.40;99.90;;;1.55;100.00;98001.13;5050680;28;20243;-60
2021/01/24 05:15:36;;;;;;;18.40;12.53;;;0.40;99.90;;;1.33;100.00;98013.09;5051274;28;20645;-60
2021/01/24 05:18:04;;;;;;;19.03;12.07;;;0.50;99.90;;;1.60;100.00;98019.84;5051441;28;20219;-61
2021/01/24 05:20:33;;;;;;;21.87;12.90;;;0.60;99.90;;;1.71;100.00;98011.19;5051205;28;20284;-61
2021/01/24 05:23:04;;;;;;;17.20;12.07;;;0.60;99.90;;;1.74;100.00;98016.06;5051184;28;20265;-62
2021/01/24 05:25:33;;;;;;;19.13;12.23;;;0.70;99.90;;;1.87;100.00;98015.97;5050910;28;20703;-62
2021/01/24 05:28:18;;;;;;;17.30;12.10;;;0.80;99.90;;;1.77;100.00;98007.69;5051015;28;20196;-64
2021/01/24 05:30:45;;;;;;;16.87;11.57;;;0.80;99.90;;;1.57;100.00;98015.00;5051052;28;20613;-62
2021/01/24 05:33:17;;;;;;;18.87;12.30;;;0.80;99.90;;;1.71;100.00;98008.53;5051169;28;20244;-62
2021/01/24 05:35:51;;;;;;;17.77;11.43;;;0.80;99.90;;;1.70;100.00;98014.88;5050819;28;20607;-62
2021/01/24 05:38:27;;;;;;;16.83;11.70;;;0.80;99.90;;;1.85;100.00;98018.03;5051465;28;20269;-61
2021/01/24 05:40:55;;;;;;;18.43;11.90;;;0.80;99.90;;;2.05;100.00;98010.69;5051926;28;20633;-62
2021/01/24 05:43:33;;;;;;;18.43;11.87;;;0.90;99.90;;;1.86;100.00;98021.50;5050911;28;20653;-61
2021/01/24 05:46:00;;;;;;;17.53;11.57;;;0.90;99.90;;;1.94;100.00;98024.69;5051435;28;20262;-61
2021/01/24 05:48:29;;;;;;;17.03;11.50;;;0.90;99.90;;;1.80;100.00;98007.25;5044325;28;20289;-62
2021/01/24 05:51:01;;;;;;;19.60;12.63;;;0.90;99.90;;;1.92;100.00;98013.47;5034674;28;20212;-61
2021/01/24 05:53:29;;;;;;;17.37;12.37;;;0.90;99.90;;;2.08;100.00;98015.56;5035084;28;20182;-62
2021/01/24 05:55:56;;;;;;;17.90;12.50;;;1.00;99.90;;;2.12;100.00;98018.59;5034633;28;20610;-63
2021/01/24 05:58:25;;;;;;;20.40;12.80;;;1.00;99.90;;;2.18;100.00;98018.53;5034670;28;20256;-63
2021/01/24 06:00:53;;;;;;;18.00;13.20;;;1.10;99.90;;;2.12;100.00;98024.72;5034851;28;20234;-61
2021/01/24 06:03:21;;;;;;;19.10;12.70;;;1.10;99.90;;;2.24;100.00;98022.16;5034995;28;20198;-62
2021/01/24 06:05:49;;;;;;;20.30;13.40;;;1.10;99.90;;;2.23;100.00;98020.53;5034240;28;20226;-61
2021/01/24 06:08:17;;;;;;;21.50;14.10;;;1.20;99.90;;;2.13;100.00;98021.03;5034687;28;20233;-61
2021/01/24 06:10:45;;;;;;;18.83;12.20;;;1.10;99.90;;;2.01;100.00;98019.31;5034360;28;20210;-62
2021/01/24 06:13:20;;;;;;;18.97;12.50;;;1.10;99.90;;;2.06;100.00;98022.91;5034406;28;20202;-62
2021/01/24 06:15:52;;;;;;;19.77;12.97;;;1.10;99.90;;;2.06;100.00;98025.56;5034758;28;20198;-62
2021/01/24 06:18:27;;;;;;;21.67;13.97;;;1.10;99.90;;;2.24;100.00;98017.66;5034665;28;20284;-61
2021/01/24 06:21:03;;;;;;;21.90;13.97;;;1.20;99.90;;;2.13;100.00;98025.53;5034371;28;20269;-62
2021/01/24 06:23:38;;;;;;;19.47;13.10;;;1.20;99.90;;;2.16;100.00;98020.59;5034262;28;20232;-61
2021/01/24 06:26:11;;;;;;;22.07;13.40;;;1.20;99.90;;;2.12;100.00;98026.56;5033668;28;20669;-62
2021/01/24 06:28:45;;;;;;;19.53;13.63;;;1.10;99.90;;;2.04;100.00;98011.72;5034390;28;20225;-62
2021/01/24 06:31:15;;;;;;;20.20;13.83;;;1.10;99.90;;;2.05;100.00;98020.50;5034129;28;20585;-62
2021/01/24 06:33:44;;;;;;;21.27;13.80;;;1.10;99.90;;;2.08;100.00;98015.56;5034291;28;20206;-63
2021/01/24 06:36:13;;;;;;;19.30;12.83;;;1.10;99.90;;;2.02;100.00;98020.94;5034239;28;20186;-63
2021/01/24 06:38:53;;;;;;;20.73;14.30;;;1.10;99.90;;;1.91;100.00;98011.81;5034101;28;20190;-63
2021/01/24 06:41:43;;;;;;;21.33;14.00;;;1.10;99.90;;;2.21;100.00;98007.47;5033758;28;20273;-62
2021/01/24 06:44:39;;;;;;;18.83;12.70;;;1.10;99.90;;;2.17;100.00;98008.13;5033893;28;20295;-62
2021/01/24 06:47:09;;;;;;;21.13;13.43;;;1.20;99.90;;;1.94;100.00;98018.56;5034064;28;20268;-62
2021/01/24 06:49:44;;;;;;;21.60;13.00;;;1.10;99.90;;;2.06;100.00;98025.56;5050447;28;20444;-61
2021/01/24 06:52:17;;;;;;;21.30;14.07;;;1.10;99.90;;;2.00;100.00;98015.03;5053980;28;20284;-62
2021/01/24 06:54:48;;;;;;;21.87;13.87;;;1.10;99.90;;;1.92;100.00;98016.13;5053472;28;20272;-61
2021/01/24 06:57:18;;;;;;;19.77;13.57;;;1.10;99.90;;;2.05;100.00;98020.50;5053383;28;20247;-61
2021/01/24 06:59:46;;;;;;;21.20;13.87;;;1.10;99.90;;;2.04;100.00;98019.69;5053100;28;20272;-61
2021/01/24 07:02:35;;;;;;;20.60;13.43;;;1.10;99.90;;;1.96;100.00;98027.91;5052703;28;20295;-61
2021/01/24 07:05:16;;;;;;;21.50;13.63;;;1.00;99.90;;;1.91;100.00;98021.66;5053421;28;20190;-62
2021/01/24 07:07:45;;;;;;;23.20;14.20;;;1.00;99.90;;;1.99;100.00;98024.84;5053225;28;20695;-63
2021/01/24 07:10:44;;;;;;;22.80;15.20;;;1.00;99.90;;;2.22;100.00;98025.03;5053226;28;20209;-61
2021/01/24 07:13:35;;;;;;;21.27;14.10;;;1.10;99.90;;;2.10;100.00;98028.59;5053337;28;20657;-62
2021/01/24 07:16:06;;;;;;;22.27;15.40;;;1.10;99.90;;;2.13;100.00;98022.88;5053671;28;20204;-62
2021/01/24 07:18:42;;;;;;;20.93;13.77;;;1.10;99.90;;;1.89;100.00;98027.19;5053568;28;20195;-63
2021/01/24 07:21:10;;;;;;;20.70;14.27;;;1.10;99.90;;;2.01;100.00;98016.66;5053339;28;20250;-61
2021/01/24 07:23:40;;;;;;;20.90;14.03;;;1.10;99.90;;;2.12;100.00;98018.59;5053455;28;20240;-61
2021/01/24 07:26:10;;;;;;;22.20;14.90;;;1.00;99.90;;;2.07;100.00;98021.91;5052619;28;20226;-62
2021/01/24 07:28:39;;;;;;;21.17;13.87;;;1.10;99.90;;;2.18;100.00;98023.81;5053100;28;20740;-61
2021/01/24 07:31:07;;;;;;;22.63;14.73;;;1.10;99.90;;;2.10;100.00;98025.94;5053027;28;20503;-61
2021/01/24 07:33:34;;;;;;;24.97;15.80;;;1.10;99.90;;;1.92;100.00;98031.22;5052788;28;20210;-61
2021/01/24 07:36:04;;;;;;;22.33;14.93;;;1.00;99.90;;;1.94;100.00;98030.00;5052766;28;20281;-61
2021/01/24 07:38:31;;;;;;;22.70;15.23;;;1.00;99.90;;;2.11;100.00;98033.72;5052975;28;20244;-61
2021/01/24 07:41:02;;;;;;;23.67;14.80;;;1.10;99.90;;;1.99;100.00;98035.47;5052341;28;20230;-62
2021/01/24 07:43:30;;;;;;;23.07;14.37;;;1.10;99.90;;;2.00;100.00;98031.78;5053452;28;20232;-62
2021/01/24 07:45:57;;;;;;;24.30;14.40;;;1.10;99.90;;;1.88;100.00;98032.69;5052569;28;20770;-62
2021/01/24 07:48:25;;;;;;;21.90;14.53;;;1.10;99.90;;;2.04;100.00;98038.28;5045817;28;20260;-61
2021/01/24 07:50:53;;;;;;;22.70;14.10;;;1.10;99.90;;;2.20;100.00;98039.53;5032579;28;20603;-61
2021/01/24 07:53:21;;;;;;;21.80;14.40;;;1.20;99.90;;;2.15;100.00;98045.50;5033014;28;20229;-60
2021/01/24 07:55:48;;;;;;;22.30;13.93;;;1.20;99.90;;;2.18;100.00;98044.28;5032460;28;20201;-61
2021/01/24 07:58:16;;;;;;;23.47;13.90;;;1.20;99.90;;;2.18;100.00;98044.28;5032804;28;20201;-60
2021/01/24 08:00:47;;;;;;;21.30;13.37;;;1.20;99.90;;;2.13;100.00;98047.56;5032471;28;20194;-61
2021/01/24 08:03:20;;;;;;;21.97;14.70;;;1.20;99.90;;;2.04;100.00;98046.25;5032704;28;20292;-62
2021/01/24 08:05:47;;;;;;;23.60;14.73;;;1.20;99.90;;;1.94;100.00;98034.47;5032375;28;20241;-61
2021/01/24 08:08:15;;;;;;;23.83;14.47;;;1.20;99.90;;;2.00;100.00;98039.72;5032649;28;20227;-61
2021/01/24 08:10:43;;;;;;;22.07;14.33;;;1.10;99.90;;;2.05;100.00;98047.84;5032509;28;20202;-61
2021/01/24 08:13:10;;;;;;;20.03;13.47;;;1.10;99.90;;;2.02;100.00;98047.47;5032279;28;20248;-61
2021/01/24 08:15:38;;;;;;;23.33;14.60;;;1.20;99.90;;;2.16;100.00;98051.66;5032262;28;20208;-61
2021/01/24 08:18:07;;;;;;;21.13;13.57;;;1.20;99.90;;;2.12;100.00;98051.28;5032332;28;20696;-62
2021/01/24 08:20:34;;;;;;;18.43;12.47;;;1.20;99.90;;;2.14;100.00;98046.56;5032133;28;20289;-61
2021/01/24 08:23:02;;;;;;;22.57;13.93;;;1.20;99.90;;;2.23;100.00;98041.78;5032444;28;20241;-61
2021/01/24 08:25:32;;;;;;;19.90;12.97;;;1.20;99.90;;;2.26;100.00;98041.34;5031941;28;20244;-61
2021/01/24 08:28:01;;;;;;;23.00;14.83;;;1.30;99.90;;;2.25;100.00;98040.50;5032206;28;20230;-62
2021/01/24 08:30:28;;;;;;;23.73;14.40;;;1.30;99.90;;;2.21;100.00;98041.19;5032065;28;20674;-62
2021/01/24 08:32:56;;;;;;;20.10;13.37;;;1.30;99.90;;;2.21;100.00;98044.66;5029342;28;20289;-62
2021/01/24 08:35:32;;;;;;;23.20;14.03;;;1.30;99.90;;;2.17;100.00;98043.47;5031577;28;20791;-62
2021/01/24 08:38:00;;;;;;;21.27;13.13;;;1.30;99.90;;;2.17;100.00;98042.63;5024360;28;20249;-61
2021/01/24 08:40:31;;;;;;;21.63;14.27;;;1.30;99.90;;;2.34;100.00;98039.22;5012295;28;20210;-62
2021/01/24 08:42:58;;;;;;;21.53;13.80;;;1.40;99.90;;;2.22;100.00;98040.97;5012431;28;20278;-61
2021/01/24 08:45:27;;;;;;;20.37;13.67;;;1.40;99.90;;;2.11;100.00;98046.19;5012021;28;20238;-61
2021/01/24 08:47:57;;;;;;;21.13;13.00;;;1.40;99.90;;;2.21;100.00;98041.19;5019717;28;20309;-62
2021/01/24 08:50:31;;;;;;;22.33;14.17;;;1.40;99.90;;;2.29;100.00;98039.06;5052692;28;20201;-61
2021/01/24 08:53:00;;;;;;;19.67;12.73;;;1.40;99.90;;;2.34;100.00;98047.19;5052351;28;20217;-62
2021/01/24 08:55:28;;;;;;;20.83;13.17;;;1.40;99.90;;;2.15;100.00;98053.47;5051385;28;20215;-62
2021/01/24 08:57:56;;;;;;;20.03;13.77;;;1.40;99.90;;;2.18;100.00;98047.72;5051843;28;20225;-62
2021/01/24 09:00:25;;;;;;;20.60;13.37;;;1.40;99.90;;;2.22;100.00;98048.94;5051698;28;20259;-62
2021/01/24 09:02:52;;;;;;;19.97;13.90;;;1.40;99.90;;;2.30;100.00;98043.31;5050889;28;20221;-62
2021/01/24 09:05:33;;;;;;;22.47;14.20;;;1.40;99.90;;;2.27;100.00;98049.09;5051127;28;20198;-62
2021/01/24 09:08:00;;;;;;;19.97;12.77;;;1.40;99.90;;;2.15;100.00;98055.31;5051080;28;20220;-62
2021/01/24 09:10:31;;;;;;;21.57;15.00;;;1.40;99.90;;;2.26;100.00;98052.78;5051067;28;20241;-63
2021/01/24 09:13:01;;;;;;;19.00;12.47;;;1.40;99.90;;;2.22;100.00;98048.94;5052328;28;20186;-63
2021/01/24 09:15:31;;;;;;;24.13;14.40;;;1.40;99.90;;;2.30;100.00;98047.84;5054059;28;20291;-63
2021/01/24 09:18:00;;;;;;;20.90;13.80;;;1.40;99.90;;;2.22;100.00;98048.94;5050836;28;20275;-62
2021/01/24 09:20:30;;;;;;;20.53;13.90;;;1.40;99.90;;;2.29;100.00;98052.34;5051007;28;20661;-62
2021/01/24 09:22:58;;;;;;;20.00;13.10;;;1.40;99.90;;;2.40;100.00;98048.16;5050775;28;20241;-62
2021/01/24 09:25:25;;;;;;;21.80;12.73;;;1.50;99.90;;;2.36;100.00;98047.78;5050768;28;20243;-62
2021/01/24 09:27:52;;;;;;;18.20;12.77;;;1.50;99.90;;;2.33;100.00;98047.41;5050976;28;20708;-61
2021/01/24 09:30:21;;;;;;;20.10;12.37;;;1.50;99.90;;;2.43;100.00;98045.88;5051562;28;20205;-66
2021/01/24 09:32:48;;;;;;;21.27;13.23;;;1.60;99.90;;;2.49;100.00;98044.97;5051057;28;20240;-61
2021/01/24 09:35:15;;;;;;;19.70;13.67;;;1.60;99.90;;;2.55;100.00;98048.59;5051385;28;20248;-62
2021/01/24 09:37:43;;;;;;;19.33;13.30;;;1.60;99.90;;;2.40;100.00;98051.59;5051474;28;20228;-62
2021/01/24 09:40:11;;;;;;;18.93;12.23;;;1.60;99.90;;;2.33;100.00;98052.72;5051307;28;20234;-62
2021/01/24 09:42:39;;;;;;;17.67;11.73;;;1.60;99.90;;;2.36;100.00;98050.44;5051474;28;20244;-62
2021/01/24 09:45:07;;;;;;;19.17;13.03;;;1.60;99.90;;;2.39;100.00;98047.34;5051402;28;20293;-63
2021/01/24 09:47:36;;;;;;;18.47;12.27;;;1.60;99.90;;;2.49;100.00;98058.25;5050762;28;20316;-63
2021/01/24 09:50:04;;;;;;;18.23;12.17;;;1.60;99.90;;;2.56;100.00;98055.53;5031413;28;20300;-63
2021/01/24 09:52:32;;;;;;;17.57;11.97;;;1.70;99.90;;;2.54;100.00;98054.16;5030731;28;20312;-63
2021/01/24 09:55:00;;;;;;;18.63;12.00;;;1.70;99.90;;;2.62;100.00;98053.84;5031176;28;20268;-62
2021/01/24 09:57:27;;;;;;;16.23;11.50;;;1.70;99.90;;;2.83;100.00;98042.75;5031325;28;20628;-63
2021/01/24 09:59:54;;;;;;;19.53;11.97;;;1.80;99.90;;;2.76;100.00;98042.84;5030941;28;20297;-62
2021/01/24 10:02:22;;;;;;;17.30;10.87;;;1.80;99.90;;;2.67;100.00;98041.53;5030857;28;20206;-64
2021/01/24 10:04:49;;;;;;;17.30;11.13;;;1.80;99.90;;;2.56;100.00;98052.06;5030957;28;20247;-63
2021/01/24 10:07:17;;;;;;;16.53;10.83;;;1.80;99.90;;;2.69;100.00;98043.97;5030911;28;20222;-62
2021/01/24 10:09:44;;;;;;;17.60;12.03;;;1.90;99.90;;;2.66;100.00;98049.69;5030824;28;20256;-63
2021/01/24 10:12:12;;;;;;;17.70;11.73;;;1.90;99.90;;;3.08;100.00;98046.94;5031125;28;20286;-63
2021/01/24 10:14:39;;;;;;;16.03;10.40;;;2.00;99.90;;;3.05;100.00;98050.06;5030923;28;20241;-62
2021/01/24 10:17:07;;;;;;;17.30;11.40;;;2.00;99.90;;;2.89;100.00;98049.84;5030638;28;20261;-61
2021/01/24 10:19:34;;;;;;;15.07;9.93;;;2.00;99.90;;;3.07;100.00;98055.16;5030574;28;20209;-61
2021/01/24 10:22:01;;;;;;;17.80;11.00;;;2.10;99.90;;;3.20;100.00;98047.00;5030723;28;20264;-63